sensor_id;sensor_type;location;lat;lon;timestamp;temperature;humidity
21481;DHT22;10902;48.158;8.634;2024-03-06T00:00:36;3.90;99.90
21481;DHT22;10902;48.158;8.634;2024-03-06T00:03:22;3.90;99.90
21481;DHT22;10902;48.158;8.634;2024-03-06T00:06:08;3.90;99.90
21481;DHT22;10902;48.158;8.634;2024-03-06T02:18:57;2.30;99.90
21481;DHT22;10902;48.158;8.634;2024-03-06T02:21:43;2.40;99.90
21481;DHT22;10902;48.158;8.634;2024-03-06T02:24:28;2.30;99.90
21481;DHT22;10902;48.158;8.634;2024-03-06T02:27:14;2.40;99.90
21481;DHT22;10902;48.158;8.634;2024-03-06T02:30:00;2.40;99.90
21481;DHT22;10902;48.158;8.634;2024-03-06T02:32:46;2.40;99.90
21481;DHT22;10902;48.158;8.634;2024-03-06T02:35:31;2.50;99.90
21481;DHT22;10902;48.158;8.634;2024-03-06T02:38:18;2.60;99.90
21481;DHT22;10902;48.158;8.634;2024-03-06T02:41:03;2.60;99.90
21481;DHT22;10902;48.158;8.634;2024-03-06T02:43:49;2.60;99.90
21481;DHT22;10902;48.158;8.634;2024-03-06T02:46:35;2.70;99.90
21481;DHT22;10902;48.158;8.634;2024-03-06T02:49:20;2.80;99.90
21481;DHT22;10902;48.158;8.634;2024-03-06T02:52:06;2.90;99.90
21481;DHT22;10902;48.158;8.634;2024-03-06T02:54:52;3.00;99.90
21481;DHT22;10902;48.158;8.634;2024-03-06T02:57:37;3.20;99.90
21481;DHT22;10902;48.158;8.634;2024-03-06T03:00:23;3.30;99.90
21481;DHT22;10902;48.158;8.634;2024-03-06T03:03:09;3.30;99.90
21481;DHT22;10902;48.158;8.634;2024-03-06T03:05:57;3.20;99.90
21481;DHT22;10902;48.158;8.634;2024-03-06T03:08:43;3.20;99.90
21481;DHT22;10902;48.158;8.634;2024-03-06T03:11:28;3.10;99.90
21481;DHT22;10902;48.158;8.634;2024-03-06T03:14:14;3.00;99.90
21481;DHT22;10902;48.158;8.634;2024-03-06T03:17:03;2.80;99.90
21481;DHT22;10902;48.158;8.634;2024-03-06T03:19:50;2.70;99.90
21481;DHT22;10902;48.158;8.634;2024-03-06T03:22:37;2.60;99.90
21481;DHT22;10902;48.158;8.634;2024-03-06T03:25:23;2.60;99.90
21481;DHT22;10902;48.158;8.634;2024-03-06T03:28:09;2.60;99.90
21481;DHT22;10902;48.158;8.634;2024-03-06T03:30:55;2.60;99.90
21481;DHT22;10902;48.158;8.634;2024-03-06T03:33:42;2.60;99.90
21481;DHT22;10902;48.158;8.634;2024-03-06T03:36:27;2.60;99.90
21481;DHT22;10902;48.158;8.634;2024-03-06T03:39:14;2.70;99.90
21481;DHT22;10902;48.158;8.634;2024-03-06T03:42:02;2.60;99.90
21481;DHT22;10902;48.158;8.634;2024-03-06T03:44:48;2.60;99.90
21481;DHT22;10902;48.158;8.634;2024-03-06T03:47:33;2.50;99.90
21481;DHT22;10902;48.158;8.634;2024-03-06T03:50:19;2.50;99.90
21481;DHT22;10902;48.158;8.634;2024-03-06T03:53:04;2.40;99.90
21481;DHT22;10902;48.158;8.634;2024-03-06T03:55:50;2.50;99.90
21481;DHT22;10902;48.158;8.634;2024-03-06T03:58:36;2.50;99.90
21481;DHT22;10902;48.158;8.634;2024-03-06T04:01:23;2.40;99.90
21481;DHT22;10902;48.158;8.634;2024-03-06T04:04:08;2.50;99.90
21481;DHT22;10902;48.158;8.634;2024-03-06T04:06:54;2.40;99.90
21481;DHT22;10902;48.158;8.634;2024-03-06T04:09:39;2.40;99.90
21481;DHT22;10902;48.158;8.634;2024-03-06T04:12:25;2.30;99.90
21481;DHT22;10902;48.158;8.634;2024-03-06T04:15:11;2.30;99.90
21481;DHT22;10902;48.158;8.634;2024-03-06T04:17:56;2.30;99.90
21481;DHT22;10902;48.158;8.634;2024-03-06T04:20:42;2.20;99.90
21481;DHT22;10902;48.158;8.634;2024-03-06T04:23:27;2.20;99.90
21481;DHT22;10902;48.158;8.634;2024-03-06T04:26:13;2.20;99.90
21481;DHT22;10902;48.158;8.634;2024-03-06T04:28:59;2.20;99.90
21481;DHT22;10902;48.158;8.634;2024-03-06T04:31:44;2.20;99.90
21481;DHT22;10902;48.158;8.634;2024-03-06T04:34:30;2.20;99.90
21481;DHT22;10902;48.158;8.634;2024-03-06T04:37:15;2.30;99.90
21481;DHT22;10902;48.158;8.634;2024-03-06T04:40:02;2.30;99.90
21481;DHT22;10902;48.158;8.634;2024-03-06T04:42:48;2.30;99.90
21481;DHT22;10902;48.158;8.634;2024-03-06T04:45:34;2.30;99.90
21481;DHT22;10902;48.158;8.634;2024-03-06T04:48:20;2.30;99.90
21481;DHT22;10902;48.158;8.634;2024-03-06T04:51:05;2.30;99.90
21481;DHT22;10902;48.158;8.634;2024-03-06T04:53:51;2.30;99.90
21481;DHT22;10902;48.158;8.634;2024-03-06T04:56:36;2.40;99.90
21481;DHT22;10902;48.158;8.634;2024-03-06T04:59:22;2.40;99.90
21481;DHT22;10902;48.158;8.634;2024-03-06T05:02:08;2.50;99.90
21481;DHT22;10902;48.158;8.634;2024-03-06T05:04:54;2.60;99.90
21481;DHT22;10902;48.158;8.634;2024-03-06T05:07:39;2.70;99.90
21481;DHT22;10902;48.158;8.634;2024-03-06T05:10:25;2.70;99.90
21481;DHT22;10902;48.158;8.634;2024-03-06T05:13:12;2.60;99.90
21481;DHT22;10902;48.158;8.634;2024-03-06T05:15:58;2.60;99.90
21481;DHT22;10902;48.158;8.634;2024-03-06T05:18:43;2.60;99.90
21481;DHT22;10902;48.158;8.634;2024-03-06T05:21:29;2.50;99.90
21481;DHT22;10902;48.158;8.634;2024-03-06T05:24:15;2.50;99.90
21481;DHT22;10902;48.158;8.634;2024-03-06T05:27:00;2.60;99.90
21481;DHT22;10902;48.158;8.634;2024-03-06T05:29:46;2.60;99.90
21481;DHT22;10902;48.158;8.634;2024-03-06T05:32:31;2.60;99.90
21481;DHT22;10902;48.158;8.634;2024-03-06T05:35:17;2.60;99.90
21481;DHT22;10902;48.158;8.634;2024-03-06T05:38:03;2.60;99.90
21481;DHT22;10902;48.158;8.634;2024-03-06T05:40:48;2.60;99.90
21481;DHT22;10902;48.158;8.634;2024-03-06T05:43:35;2.70;99.90
21481;DHT22;10902;48.158;8.634;2024-03-06T05:46:21;2.90;99.90
21481;DHT22;10902;48.158;8.634;2024-03-06T05:49:06;3.10;99.90
21481;DHT22;10902;48.158;8.634;2024-03-06T05:51:52;3.20;99.90
21481;DHT22;10902;48.158;8.634;2024-03-06T05:54:37;3.20;99.90
21481;DHT22;10902;48.158;8.634;2024-03-06T05:57:23;3.20;99.90
21481;DHT22;10902;48.158;8.634;2024-03-06T06:00:09;3.30;99.90
21481;DHT22;10902;48.158;8.634;2024-03-06T06:02:56;3.40;99.90
21481;DHT22;10902;48.158;8.634;2024-03-06T06:05:42;3.60;99.90
21481;DHT22;10902;48.158;8.634;2024-03-06T06:08:27;3.60;99.90
21481;DHT22;10902;48.158;8.634;2024-03-06T06:11:13;3.60;99.90
21481;DHT22;10902;48.158;8.634;2024-03-06T06:13:59;3.60;99.90
21481;DHT22;10902;48.158;8.634;2024-03-06T06:16:45;3.50;99.90
21481;DHT22;10902;48.158;8.634;2024-03-06T06:19:30;3.30;99.90
21481;DHT22;10902;48.158;8.634;2024-03-06T06:22:16;3.20;99.90
21481;DHT22;10902;48.158;8.634;2024-03-06T06:25:02;3.30;99.90
21481;DHT22;10902;48.158;8.634;2024-03-06T06:27:48;3.30;99.90
21481;DHT22;10902;48.158;8.634;2024-03-06T06:30:35;3.40;99.90
21481;DHT22;10902;48.158;8.634;2024-03-06T06:33:20;3.50;99.90
21481;DHT22;10902;48.158;8.634;2024-03-06T06:36:06;3.50;99.90
21481;DHT22;10902;48.158;8.634;2024-03-06T06:38:53;3.50;99.90
21481;DHT22;10902;48.158;8.634;2024-03-06T06:41:38;3.40;99.90
21481;DHT22;10902;48.158;8.634;2024-03-06T06:44:24;3.50;99.90
21481;DHT22;10902;48.158;8.634;2024-03-06T06:47:09;3.50;99.90
21481;DHT22;10902;48.158;8.634;2024-03-06T06:49:55;3.50;99.90
21481;DHT22;10902;48.158;8.634;2024-03-06T06:52:41;3.50;99.90
21481;DHT22;10902;48.158;8.634;2024-03-06T06:55:27;3.40;99.90
21481;DHT22;10902;48.158;8.634;2024-03-06T06:58:12;3.40;99.90
21481;DHT22;10902;48.158;8.634;2024-03-06T07:00:58;3.40;99.90
21481;DHT22;10902;48.158;8.634;2024-03-06T07:03:44;3.50;99.90
21481;DHT22;10902;48.158;8.634;2024-03-06T07:06:30;3.60;99.90
21481;DHT22;10902;48.158;8.634;2024-03-06T07:09:15;3.60;99.90
21481;DHT22;10902;48.158;8.634;2024-03-06T07:12:01;3.70;99.90
21481;DHT22;10902;48.158;8.634;2024-03-06T07:14:48;3.70;99.90
21481;DHT22;10902;48.158;8.634;2024-03-06T07:17:33;3.70;99.90
21481;DHT22;10902;48.158;8.634;2024-03-06T07:20:19;3.60;99.90
21481;DHT22;10902;48.158;8.634;2024-03-06T07:23:05;3.60;99.90
21481;DHT22;10902;48.158;8.634;2024-03-06T07:25:50;3.60;99.90
21481;DHT22;10902;48.158;8.634;2024-03-06T07:28:36;3.50;99.90
21481;DHT22;10902;48.158;8.634;2024-03-06T07:31:25;3.50;99.90
21481;DHT22;10902;48.158;8.634;2024-03-06T07:34:11;3.60;99.90
21481;DHT22;10902;48.158;8.634;2024-03-06T07:36:57;3.80;99.90
21481;DHT22;10902;48.158;8.634;2024-03-06T07:39:44;3.90;99.90
21481;DHT22;10902;48.158;8.634;2024-03-06T07:42:31;3.90;99.90
21481;DHT22;10902;48.158;8.634;2024-03-06T07:45:17;3.80;99.90
21481;DHT22;10902;48.158;8.634;2024-03-06T07:48:03;3.70;99.90
21481;DHT22;10902;48.158;8.634;2024-03-06T07:50:49;3.70;99.90
21481;DHT22;10902;48.158;8.634;2024-03-06T07:53:34;3.80;99.90
21481;DHT22;10902;48.158;8.634;2024-03-06T07:56:20;3.80;99.90
21481;DHT22;10902;48.158;8.634;2024-03-06T07:59:05;3.90;99.90
21481;DHT22;10902;48.158;8.634;2024-03-06T08:01:51;3.90;99.90
21481;DHT22;10902;48.158;8.634;2024-03-06T08:04:37;3.80;99.90
21481;DHT22;10902;48.158;8.634;2024-03-06T08:07:23;3.80;99.90
21481;DHT22;10902;48.158;8.634;2024-03-06T08:10:12;3.80;99.90
21481;DHT22;10902;48.158;8.634;2024-03-06T08:12:58;3.90;99.90
21481;DHT22;10902;48.158;8.634;2024-03-06T08:15:44;3.90;99.90
21481;DHT22;10902;48.158;8.634;2024-03-06T08:18:30;4.00;99.90
21481;DHT22;10902;48.158;8.634;2024-03-06T08:21:16;4.00;99.90
21481;DHT22;10902;48.158;8.634;2024-03-06T08:24:02;4.00;99.90
21481;DHT22;10902;48.158;8.634;2024-03-06T08:26:47;4.10;99.90
21481;DHT22;10902;48.158;8.634;2024-03-06T08:29:34;4.10;99.90
21481;DHT22;10902;48.158;8.634;2024-03-06T08:32:20;3.90;99.90
21481;DHT22;10902;48.158;8.634;2024-03-06T08:35:08;4.00;99.90
21481;DHT22;10902;48.158;8.634;2024-03-06T08:37:56;4.00;99.90
21481;DHT22;10902;48.158;8.634;2024-03-06T08:40:42;4.10;99.90
21481;DHT22;10902;48.158;8.634;2024-03-06T08:43:30;4.10;99.90
21481;DHT22;10902;48.158;8.634;2024-03-06T08:46:16;4.10;99.90
21481;DHT22;10902;48.158;8.634;2024-03-06T08:49:01;4.10;99.90
21481;DHT22;10902;48.158;8.634;2024-03-06T08:51:47;4.00;99.90
21481;DHT22;10902;48.158;8.634;2024-03-06T08:54:33;3.90;99.90
21481;DHT22;10902;48.158;8.634;2024-03-06T08:57:18;3.90;99.90
21481;DHT22;10902;48.158;8.634;2024-03-06T09:00:07;3.90;99.90
21481;DHT22;10902;48.158;8.634;2024-03-06T09:02:56;3.90;99.90
21481;DHT22;10902;48.158;8.634;2024-03-06T09:05:41;3.90;99.90
21481;DHT22;10902;48.158;8.634;2024-03-06T09:08:27;4.00;99.90
21481;DHT22;10902;48.158;8.634;2024-03-06T09:11:12;4.00;99.90
21481;DHT22;10902;48.158;8.634;2024-03-06T09:13:58;4.00;99.90
21481;DHT22;10902;48.158;8.634;2024-03-06T09:16:44;4.00;99.90
21481;DHT22;10902;48.158;8.634;2024-03-06T09:19:30;4.00;99.90
21481;DHT22;10902;48.158;8.634;2024-03-06T09:22:15;4.00;99.90
21481;DHT22;10902;48.158;8.634;2024-03-06T09:25:03;4.10;99.90
21481;DHT22;10902;48.158;8.634;2024-03-06T09:27:49;4.20;99.90
21481;DHT22;10902;48.158;8.634;2024-03-06T09:30:34;4.30;99.90
21481;DHT22;10902;48.158;8.634;2024-03-06T09:33:20;4.20;99.90
21481;DHT22;10902;48.158;8.634;2024-03-06T09:36:06;4.10;99.90
21481;DHT22;10902;48.158;8.634;2024-03-06T09:38:52;4.20;99.90
21481;DHT22;10902;48.158;8.634;2024-03-06T09:41:38;4.30;99.90
21481;DHT22;10902;48.158;8.634;2024-03-06T09:44:26;4.30;99.90
21481;DHT22;10902;48.158;8.634;2024-03-06T09:47:13;4.10;99.90
21481;DHT22;10902;48.158;8.634;2024-03-06T09:50:01;4.20;99.90
21481;DHT22;10902;48.158;8.634;2024-03-06T09:52:51;4.10;99.90
21481;DHT22;10902;48.158;8.634;2024-03-06T09:55:39;4.20;99.90
21481;DHT22;10902;48.158;8.634;2024-03-06T09:58:25;4.30;99.90
21481;DHT22;10902;48.158;8.634;2024-03-06T10:01:12;4.40;99.90
21481;DHT22;10902;48.158;8.634;2024-03-06T10:03:58;4.30;99.90
21481;DHT22;10902;48.158;8.634;2024-03-06T10:06:44;4.30;99.90
21481;DHT22;10902;48.158;8.634;2024-03-06T10:09:31;4.20;99.90
21481;DHT22;10902;48.158;8.634;2024-03-06T10:12:18;4.20;99.90
21481;DHT22;10902;48.158;8.634;2024-03-06T10:15:04;4.20;99.90
21481;DHT22;10902;48.158;8.634;2024-03-06T10:17:50;4.30;99.90
21481;DHT22;10902;48.158;8.634;2024-03-06T10:20:36;4.40;99.90
21481;DHT22;10902;48.158;8.634;2024-03-06T10:23:22;4.60;99.90
21481;DHT22;10902;48.158;8.634;2024-03-06T10:26:08;4.50;99.90
21481;DHT22;10902;48.158;8.634;2024-03-06T10:28:54;4.40;99.90
21481;DHT22;10902;48.158;8.634;2024-03-06T10:31:40;4.40;99.90
21481;DHT22;10902;48.158;8.634;2024-03-06T10:34:28;4.30;99.90
21481;DHT22;10902;48.158;8.634;2024-03-06T10:37:17;4.20;99.90
21481;DHT22;10902;48.158;8.634;2024-03-06T10:40:03;4.20;99.90
21481;DHT22;10902;48.158;8.634;2024-03-06T10:42:51;4.20;99.90
21481;DHT22;10902;48.158;8.634;2024-03-06T10:45:41;4.20;99.90
21481;DHT22;10902;48.158;8.634;2024-03-06T10:48:31;4.20;99.90
21481;DHT22;10902;48.158;8.634;2024-03-06T10:51:18;4.10;99.90
21481;DHT22;10902;48.158;8.634;2024-03-06T10:54:04;4.10;99.90
21481;DHT22;10902;48.158;8.634;2024-03-06T10:56:50;4.20;99.90
21481;DHT22;10902;48.158;8.634;2024-03-06T10:59:35;4.10;99.90
21481;DHT22;10902;48.158;8.634;2024-03-06T11:02:22;4.10;99.90
21481;DHT22;10902;48.158;8.634;2024-03-06T11:05:09;4.10;99.90
21481;DHT22;10902;48.158;8.634;2024-03-06T11:07:55;4.10;99.90
21481;DHT22;10902;48.158;8.634;2024-03-06T11:10:42;4.10;99.90
21481;DHT22;10902;48.158;8.634;2024-03-06T11:13:30;4.00;99.90
21481;DHT22;10902;48.158;8.634;2024-03-06T11:16:18;3.90;99.90
21481;DHT22;10902;48.158;8.634;2024-03-06T11:19:08;3.80;99.90
21481;DHT22;10902;48.158;8.634;2024-03-06T11:21:54;3.90;99.90
21481;DHT22;10902;48.158;8.634;2024-03-06T11:24:39;3.80;99.90
21481;DHT22;10902;48.158;8.634;2024-03-06T11:27:26;3.80;99.90
21481;DHT22;10902;48.158;8.634;2024-03-06T11:30:12;3.80;99.90
21481;DHT22;10902;48.158;8.634;2024-03-06T11:33:01;3.80;99.90
21481;DHT22;10902;48.158;8.634;2024-03-06T11:39:16;3.90;99.90
21481;DHT22;10902;48.158;8.634;2024-03-06T11:42:04;3.90;99.90
21481;DHT22;10902;48.158;8.634;2024-03-06T11:44:54;3.90;99.90
21481;DHT22;10902;48.158;8.634;2024-03-06T11:48:01;3.90;99.90
21481;DHT22;10902;48.158;8.634;2024-03-06T11:50:46;4.10;99.90
21481;DHT22;10902;48.158;8.634;2024-03-06T11:53:35;4.10;99.90
21481;DHT22;10902;48.158;8.634;2024-03-06T11:56:22;4.00;99.90
21481;DHT22;10902;48.158;8.634;2024-03-06T11:59:08;3.90;99.90
21481;DHT22;10902;48.158;8.634;2024-03-06T12:02:01;3.90;99.90
21481;DHT22;10902;48.158;8.634;2024-03-06T12:04:48;3.80;99.90
21481;DHT22;10902;48.158;8.634;2024-03-06T12:07:33;3.80;99.90
21481;DHT22;10902;48.158;8.634;2024-03-06T12:10:19;3.80;99.90
21481;DHT22;10902;48.158;8.634;2024-03-06T12:13:05;3.80;99.90
21481;DHT22;10902;48.158;8.634;2024-03-06T12:15:51;3.90;99.90
21481;DHT22;10902;48.158;8.634;2024-03-06T12:18:37;3.80;99.90
21481;DHT22;10902;48.158;8.634;2024-03-06T12:21:31;3.80;99.90
21481;DHT22;10902;48.158;8.634;2024-03-06T12:24:17;3.90;99.90
21481;DHT22;10902;48.158;8.634;2024-03-06T12:27:06;3.90;99.90
21481;DHT22;10902;48.158;8.634;2024-03-06T12:29:53;3.90;99.90
21481;DHT22;10902;48.158;8.634;2024-03-06T12:32:39;3.90;99.90
21481;DHT22;10902;48.158;8.634;2024-03-06T12:35:28;4.00;99.90
21481;DHT22;10902;48.158;8.634;2024-03-06T12:38:15;4.00;99.90
21481;DHT22;10902;48.158;8.634;2024-03-06T12:41:01;3.90;99.90
21481;DHT22;10902;48.158;8.634;2024-03-06T12:43:46;3.90;99.90
21481;DHT22;10902;48.158;8.634;2024-03-06T12:46:32;3.90;99.90
21481;DHT22;10902;48.158;8.634;2024-03-06T12:49:18;4.00;99.90
21481;DHT22;10902;48.158;8.634;2024-03-06T12:52:04;4.00;99.90
21481;DHT22;10902;48.158;8.634;2024-03-06T12:54:50;4.10;99.90
21481;DHT22;10902;48.158;8.634;2024-03-06T12:57:35;4.20;99.90
21481;DHT22;10902;48.158;8.634;2024-03-06T13:00:21;4.10;99.90
21481;DHT22;10902;48.158;8.634;2024-03-06T13:03:07;4.10;99.90
21481;DHT22;10902;48.158;8.634;2024-03-06T13:05:52;4.10;99.90
21481;DHT22;10902;48.158;8.634;2024-03-06T13:08:38;4.10;99.90
21481;DHT22;10902;48.158;8.634;2024-03-06T13:11:24;4.00;99.90
21481;DHT22;10902;48.158;8.634;2024-03-06T13:14:09;4.10;99.90
21481;DHT22;10902;48.158;8.634;2024-03-06T13:16:57;4.10;99.90
21481;DHT22;10902;48.158;8.634;2024-03-06T13:19:42;4.20;99.90
21481;DHT22;10902;48.158;8.634;2024-03-06T13:22:28;4.30;99.90
21481;DHT22;10902;48.158;8.634;2024-03-06T13:25:14;4.30;99.90
21481;DHT22;10902;48.158;8.634;2024-03-06T13:27:59;4.30;99.90
21481;DHT22;10902;48.158;8.634;2024-03-06T13:30:45;4.30;99.90
21481;DHT22;10902;48.158;8.634;2024-03-06T13:33:30;4.30;99.90
21481;DHT22;10902;48.158;8.634;2024-03-06T13:36:16;4.30;99.90
21481;DHT22;10902;48.158;8.634;2024-03-06T13:39:01;4.40;99.90
21481;DHT22;10902;48.158;8.634;2024-03-06T13:41:47;4.40;99.90
21481;DHT22;10902;48.158;8.634;2024-03-06T13:44:32;4.50;99.90
21481;DHT22;10902;48.158;8.634;2024-03-06T13:47:18;4.40;99.90
21481;DHT22;10902;48.158;8.634;2024-03-06T13:50:04;4.50;99.90
21481;DHT22;10902;48.158;8.634;2024-03-06T13:52:52;4.30;99.90
21481;DHT22;10902;48.158;8.634;2024-03-06T13:55:37;4.30;99.90
21481;DHT22;10902;48.158;8.634;2024-03-06T13:58:23;4.30;99.90
21481;DHT22;10902;48.158;8.634;2024-03-06T14:01:08;4.20;99.90
21481;DHT22;10902;48.158;8.634;2024-03-06T14:03:54;4.20;99.90
21481;DHT22;10902;48.158;8.634;2024-03-06T14:06:40;4.10;99.90
21481;DHT22;10902;48.158;8.634;2024-03-06T14:09:26;4.00;99.90
21481;DHT22;10902;48.158;8.634;2024-03-06T14:12:12;4.00;99.90
21481;DHT22;10902;48.158;8.634;2024-03-06T14:14:57;4.00;99.90
21481;DHT22;10902;48.158;8.634;2024-03-06T14:17:43;4.00;99.90
21481;DHT22;10902;48.158;8.634;2024-03-06T14:20:28;4.10;99.90
21481;DHT22;10902;48.158;8.634;2024-03-06T14:23:14;4.20;99.90
21481;DHT22;10902;48.158;8.634;2024-03-06T14:26:00;4.30;99.90
21481;DHT22;10902;48.158;8.634;2024-03-06T14:28:47;4.30;99.90
21481;DHT22;10902;48.158;8.634;2024-03-06T14:31:32;4.30;99.90
21481;DHT22;10902;48.158;8.634;2024-03-06T14:34:18;4.30;99.90
21481;DHT22;10902;48.158;8.634;2024-03-06T14:37:04;4.40;99.90
21481;DHT22;10902;48.158;8.634;2024-03-06T14:39:49;4.40;99.90
21481;DHT22;10902;48.158;8.634;2024-03-06T14:42:37;4.30;99.90
21481;DHT22;10902;48.158;8.634;2024-03-06T14:45:22;4.30;99.90
21481;DHT22;10902;48.158;8.634;2024-03-06T14:48:08;4.30;99.90
21481;DHT22;10902;48.158;8.634;2024-03-06T14:50:54;4.30;99.90
21481;DHT22;10902;48.158;8.634;2024-03-06T14:53:39;4.40;99.90
21481;DHT22;10902;48.158;8.634;2024-03-06T14:56:25;4.50;99.90
21481;DHT22;10902;48.158;8.634;2024-03-06T14:59:11;4.40;99.90
21481;DHT22;10902;48.158;8.634;2024-03-06T15:01:56;4.40;99.90
21481;DHT22;10902;48.158;8.634;2024-03-06T15:04:42;4.40;99.90
21481;DHT22;10902;48.158;8.634;2024-03-06T15:07:27;4.30;99.90
21481;DHT22;10902;48.158;8.634;2024-03-06T15:10:13;4.30;99.90
21481;DHT22;10902;48.158;8.634;2024-03-06T15:12:58;4.40;99.90
21481;DHT22;10902;48.158;8.634;2024-03-06T15:15:44;4.30;99.90
21481;DHT22;10902;48.158;8.634;2024-03-06T15:18:30;4.30;99.90
21481;DHT22;10902;48.158;8.634;2024-03-06T15:21:16;4.20;99.90
21481;DHT22;10902;48.158;8.634;2024-03-06T15:24:02;4.20;99.90
21481;DHT22;10902;48.158;8.634;2024-03-06T15:26:48;4.20;99.90
21481;DHT22;10902;48.158;8.634;2024-03-06T15:29:33;4.10;99.90
21481;DHT22;10902;48.158;8.634;2024-03-06T15:32:19;4.10;99.90
21481;DHT22;10902;48.158;8.634;2024-03-06T15:35:05;4.10;99.90
21481;DHT22;10902;48.158;8.634;2024-03-06T15:37:50;4.00;99.90
21481;DHT22;10902;48.158;8.634;2024-03-06T15:40:36;4.10;99.90
21481;DHT22;10902;48.158;8.634;2024-03-06T15:43:21;4.10;99.90
21481;DHT22;10902;48.158;8.634;2024-03-06T15:46:07;4.00;99.90
21481;DHT22;10902;48.158;8.634;2024-03-06T15:48:53;4.00;99.90
21481;DHT22;10902;48.158;8.634;2024-03-06T15:51:39;3.90;99.90
21481;DHT22;10902;48.158;8.634;2024-03-06T15:54:24;3.80;99.90
21481;DHT22;10902;48.158;8.634;2024-03-06T15:57:10;3.80;99.90
21481;DHT22;10902;48.158;8.634;2024-03-06T15:59:57;3.80;99.90
21481;DHT22;10902;48.158;8.634;2024-03-06T16:02:42;3.90;99.90
21481;DHT22;10902;48.158;8.634;2024-03-06T16:05:29;3.80;99.90
21481;DHT22;10902;48.158;8.634;2024-03-06T16:08:16;3.90;99.90
21481;DHT22;10902;48.158;8.634;2024-03-06T16:11:01;3.90;99.90
21481;DHT22;10902;48.158;8.634;2024-03-06T16:13:47;3.80;99.90
21481;DHT22;10902;48.158;8.634;2024-03-06T16:16:33;3.80;99.90
21481;DHT22;10902;48.158;8.634;2024-03-06T16:19:18;3.80;99.90
21481;DHT22;10902;48.158;8.634;2024-03-06T16:22:04;3.80;99.90
21481;DHT22;10902;48.158;8.634;2024-03-06T16:24:50;3.80;99.90
21481;DHT22;10902;48.158;8.634;2024-03-06T16:27:37;3.80;99.90
21481;DHT22;10902;48.158;8.634;2024-03-06T16:30:22;3.70;99.90
21481;DHT22;10902;48.158;8.634;2024-03-06T16:33:08;3.70;99.90
21481;DHT22;10902;48.158;8.634;2024-03-06T16:35:54;3.70;99.90
21481;DHT22;10902;48.158;8.634;2024-03-06T16:38:39;3.60;99.90
21481;DHT22;10902;48.158;8.634;2024-03-06T16:41:25;3.60;99.90
21481;DHT22;10902;48.158;8.634;2024-03-06T16:44:11;3.50;99.90
21481;DHT22;10902;48.158;8.634;2024-03-06T16:46:56;3.50;99.90
21481;DHT22;10902;48.158;8.634;2024-03-06T16:49:42;3.50;99.90
21481;DHT22;10902;48.158;8.634;2024-03-06T16:52:28;3.50;99.90
21481;DHT22;10902;48.158;8.634;2024-03-06T16:55:13;3.40;99.90
21481;DHT22;10902;48.158;8.634;2024-03-06T16:57:59;3.30;99.90
21481;DHT22;10902;48.158;8.634;2024-03-06T17:00:45;3.30;99.90
21481;DHT22;10902;48.158;8.634;2024-03-06T17:03:30;3.20;99.90
21481;DHT22;10902;48.158;8.634;2024-03-06T17:06:16;3.10;99.90
21481;DHT22;10902;48.158;8.634;2024-03-06T17:09:02;3.10;99.90
21481;DHT22;10902;48.158;8.634;2024-03-06T17:11:48;3.00;99.90
21481;DHT22;10902;48.158;8.634;2024-03-06T17:14:34;3.00;99.90
21481;DHT22;10902;48.158;8.634;2024-03-06T17:17:19;3.00;99.90
21481;DHT22;10902;48.158;8.634;2024-03-06T17:20:06;2.90;99.90
21481;DHT22;10902;48.158;8.634;2024-03-06T17:22:52;2.90;99.90
21481;DHT22;10902;48.158;8.634;2024-03-06T17:25:37;2.90;99.90
21481;DHT22;10902;48.158;8.634;2024-03-06T17:28:23;2.80;99.90
21481;DHT22;10902;48.158;8.634;2024-03-06T17:31:09;2.90;99.90
21481;DHT22;10902;48.158;8.634;2024-03-06T17:33:55;2.90;99.90
21481;DHT22;10902;48.158;8.634;2024-03-06T17:36:40;2.80;99.90
21481;DHT22;10902;48.158;8.634;2024-03-06T17:39:31;2.80;99.90
21481;DHT22;10902;48.158;8.634;2024-03-06T17:42:17;2.80;99.90
21481;DHT22;10902;48.158;8.634;2024-03-06T17:45:03;2.80;99.90
21481;DHT22;10902;48.158;8.634;2024-03-06T17:47:48;2.80;99.90
21481;DHT22;10902;48.158;8.634;2024-03-06T17:50:34;2.80;99.90
21481;DHT22;10902;48.158;8.634;2024-03-06T17:53:21;2.80;99.90
21481;DHT22;10902;48.158;8.634;2024-03-06T17:56:07;2.80;99.90
21481;DHT22;10902;48.158;8.634;2024-03-06T17:58:52;2.80;99.90
21481;DHT22;10902;48.158;8.634;2024-03-06T18:01:38;2.80;99.90
21481;DHT22;10902;48.158;8.634;2024-03-06T18:04:24;2.80;99.90
21481;DHT22;10902;48.158;8.634;2024-03-06T18:07:09;2.80;99.90
21481;DHT22;10902;48.158;8.634;2024-03-06T18:09:55;2.80;99.90
21481;DHT22;10902;48.158;8.634;2024-03-06T18:12:42;2.90;99.90
21481;DHT22;10902;48.158;8.634;2024-03-06T18:15:27;2.90;99.90
21481;DHT22;10902;48.158;8.634;2024-03-06T18:18:13;3.10;99.90
21481;DHT22;10902;48.158;8.634;2024-03-06T18:20:59;3.10;99.90
21481;DHT22;10902;48.158;8.634;2024-03-06T18:23:45;3.00;99.90
21481;DHT22;10902;48.158;8.634;2024-03-06T18:26:30;3.00;99.90
21481;DHT22;10902;48.158;8.634;2024-03-06T18:29:16;3.00;99.90
21481;DHT22;10902;48.158;8.634;2024-03-06T18:32:02;3.00;99.90
21481;DHT22;10902;48.158;8.634;2024-03-06T18:34:48;3.00;99.90
21481;DHT22;10902;48.158;8.634;2024-03-06T18:37:36;3.20;99.90
21481;DHT22;10902;48.158;8.634;2024-03-06T18:40:22;3.20;99.90
21481;DHT22;10902;48.158;8.634;2024-03-06T18:43:08;3.20;99.90
21481;DHT22;10902;48.158;8.634;2024-03-06T18:45:54;3.10;99.90
21481;DHT22;10902;48.158;8.634;2024-03-06T18:48:39;3.10;99.90
21481;DHT22;10902;48.158;8.634;2024-03-06T18:51:25;3.00;99.90
21481;DHT22;10902;48.158;8.634;2024-03-06T18:54:11;3.10;99.90
21481;DHT22;10902;48.158;8.634;2024-03-06T18:56:57;3.10;99.90
21481;DHT22;10902;48.158;8.634;2024-03-06T18:59:43;3.00;99.90
21481;DHT22;10902;48.158;8.634;2024-03-06T19:02:30;3.10;99.90
21481;DHT22;10902;48.158;8.634;2024-03-06T19:05:16;3.10;99.90
21481;DHT22;10902;48.158;8.634;2024-03-06T19:08:02;3.10;99.90
21481;DHT22;10902;48.158;8.634;2024-03-06T19:10:48;3.00;99.90
21481;DHT22;10902;48.158;8.634;2024-03-06T19:13:33;3.10;99.90
21481;DHT22;10902;48.158;8.634;2024-03-06T19:16:19;3.20;99.90
21481;DHT22;10902;48.158;8.634;2024-03-06T19:19:05;3.20;99.90
21481;DHT22;10902;48.158;8.634;2024-03-06T19:21:51;3.20;99.90
21481;DHT22;10902;48.158;8.634;2024-03-06T19:24:38;3.20;99.90
21481;DHT22;10902;48.158;8.634;2024-03-06T19:27:24;3.20;99.90
21481;DHT22;10902;48.158;8.634;2024-03-06T19:30:12;3.10;99.90
21481;DHT22;10902;48.158;8.634;2024-03-06T19:32:58;3.20;99.90
21481;DHT22;10902;48.158;8.634;2024-03-06T19:35:43;3.40;99.90
21481;DHT22;10902;48.158;8.634;2024-03-06T19:38:29;3.30;99.90
21481;DHT22;10902;48.158;8.634;2024-03-06T19:41:15;3.20;99.90
21481;DHT22;10902;48.158;8.634;2024-03-06T19:44:02;3.10;99.90
21481;DHT22;10902;48.158;8.634;2024-03-06T19:46:49;3.10;99.90
21481;DHT22;10902;48.158;8.634;2024-03-06T19:49:38;3.00;99.90
21481;DHT22;10902;48.158;8.634;2024-03-06T19:52:23;3.00;99.90
21481;DHT22;10902;48.158;8.634;2024-03-06T19:55:10;3.00;99.90
21481;DHT22;10902;48.158;8.634;2024-03-06T19:57:57;3.10;99.90